createdAt,value
2022-08-16T00:02:32.706Z,20.11
2022-08-16T00:04:59.632Z,20.02
2022-08-16T00:07:26.601Z,19.98
2022-08-16T00:09:55.693Z,19.92
2022-08-16T00:12:22.011Z,19.86
2022-08-16T00:14:50.090Z,19.81
2022-08-16T00:17:19.293Z,19.75
2022-08-16T00:19:49.113Z,19.70
2022-08-16T00:22:20.856Z,19.62
2022-08-16T00:24:51.967Z,19.61
2022-08-16T00:27:18.431Z,19.58
2022-08-16T00:29:44.769Z,19.61
2022-08-16T00:32:13.000Z,19.60
2022-08-16T00:34:53.714Z,19.62
2022-08-16T00:37:24.670Z,19.61
2022-08-16T00:39:57.378Z,19.61
2022-08-16T00:42:30.296Z,19.59
2022-08-16T00:45:00.436Z,19.59
2022-08-16T00:47:26.943Z,19.56
2022-08-16T00:49:56.881Z,19.55
2022-08-16T00:52:30.246Z,19.53
2022-08-16T00:54:57.347Z,19.53
2022-08-16T00:57:24.048Z,19.49
2022-08-16T00:59:59.129Z,19.49
2022-08-16T01:02:31.597Z,19.44
2022-08-16T01:05:10.434Z,19.41
2022-08-16T01:07:50.707Z,19.39
2022-08-16T01:10:17.977Z,19.40
2022-08-16T01:12:44.504Z,19.38
2022-08-16T01:15:11.344Z,19.38
2022-08-16T01:17:37.811Z,19.34
2022-08-16T01:20:23.380Z,19.32
2022-08-16T01:22:57.183Z,19.31
2022-08-16T01:25:34.038Z,19.28
2022-08-16T01:28:02.319Z,19.26
2022-08-16T01:30:31.333Z,19.20
2022-08-16T01:33:02.520Z,19.17
2022-08-16T01:35:35.141Z,19.12
2022-08-16T01:38:19.540Z,19.07
2022-08-16T01:40:49.014Z,19.02
2022-08-16T01:43:15.879Z,18.97
2022-08-16T01:45:43.323Z,18.91
2022-08-16T01:48:19.586Z,18.86
2022-08-16T01:51:09.519Z,18.85
2022-08-16T01:53:33.504Z,18.87
2022-08-16T01:56:01.272Z,18.88
2022-08-16T01:58:29.490Z,18.86
2022-08-16T02:00:55.807Z,18.86
2022-08-16T02:03:24.374Z,18.83
2022-08-16T02:05:53.279Z,18.81
2022-08-16T02:08:33.276Z,18.78
2022-08-16T02:11:02.244Z,18.73
2022-08-16T02:13:32.649Z,18.69
2022-08-16T02:15:59.319Z,18.65
2022-08-16T02:18:25.657Z,18.61
2022-08-16T02:20:53.590Z,18.61
2022-08-16T02:23:20.616Z,18.58
2022-08-16T02:25:52.575Z,18.56
2022-08-16T02:28:23.540Z,18.52
2022-08-16T02:30:51.735Z,18.48
2022-08-16T02:33:18.827Z,18.46
2022-08-16T02:35:54.246Z,18.44
2022-08-16T02:38:24.547Z,18.41
2022-08-16T02:40:51.175Z,18.39
2022-08-16T02:43:17.518Z,18.35
2022-08-16T02:45:45.183Z,18.31
2022-08-16T02:48:29.909Z,18.29
2022-08-16T02:51:06.756Z,18.26
2022-08-16T02:53:38.597Z,18.24
2022-08-16T02:56:09.813Z,18.21
2022-08-16T02:58:36.499Z,18.17
2022-08-16T03:01:04.628Z,18.15
2022-08-16T03:04:28.653Z,18.12
2022-08-16T03:06:39.022Z,18.10
2022-08-16T03:09:04.635Z,18.08
2022-08-16T03:11:35.628Z,18.06
2022-08-16T03:14:02.210Z,18.03
2022-08-16T03:16:39.138Z,18.00
2022-08-16T03:19:21.932Z,17.96
2022-08-16T03:21:48.694Z,17.94
2022-08-16T03:24:29.398Z,17.92
2022-08-16T03:26:58.034Z,17.88
2022-08-16T03:29:25.054Z,17.85
2022-08-16T03:31:52.795Z,17.86
2022-08-16T03:34:19.403Z,17.81
2022-08-16T03:36:46.819Z,17.80
2022-08-16T03:39:15.085Z,17.78
2022-08-16T03:41:50.890Z,17.74
2022-08-16T03:44:43.228Z,17.70
2022-08-16T03:47:10.299Z,17.68
2022-08-16T03:49:37.403Z,17.68
2022-08-16T03:52:04.136Z,17.64
2022-08-16T03:54:30.469Z,17.64
2022-08-16T03:56:58.654Z,17.60
2022-08-16T03:59:25.815Z,17.60
2022-08-16T04:01:56.277Z,17.58
2022-08-16T04:04:33.430Z,17.57
2022-08-16T04:07:00.629Z,17.54
2022-08-16T04:09:29.407Z,17.54
2022-08-16T04:11:56.184Z,17.55
2022-08-16T04:14:31.154Z,17.54
2022-08-16T04:16:59.482Z,17.53
2022-08-16T04:19:31.715Z,17.53
2022-08-16T04:21:58.515Z,17.53
2022-08-16T04:24:28.635Z,17.56
2022-08-16T04:26:55.431Z,17.58
2022-08-16T04:29:25.010Z,17.59
2022-08-16T04:31:56.671Z,17.61
2022-08-16T04:34:26.588Z,17.61
2022-08-16T04:36:54.344Z,17.60
2022-08-16T04:39:23.794Z,17.59
2022-08-16T04:41:50.534Z,17.58
2022-08-16T04:44:32.983Z,17.55
2022-08-16T04:47:23.934Z,17.55
2022-08-16T04:49:50.715Z,17.55
2022-08-16T04:52:32.843Z,17.57
2022-08-16T04:55:03.528Z,17.58
2022-08-16T04:57:30.376Z,17.59
2022-08-16T04:59:56.885Z,17.60
2022-08-16T05:02:41.969Z,17.60
2022-08-16T05:05:09.431Z,17.60
2022-08-16T05:07:58.206Z,17.60
2022-08-16T05:10:26.505Z,17.61
2022-08-16T05:12:52.847Z,17.63
2022-08-16T05:15:19.214Z,17.65
2022-08-16T05:17:46.730Z,17.68
2022-08-16T05:20:35.697Z,17.69
2022-08-16T05:23:00.785Z,17.73
2022-08-16T05:25:41.268Z,17.79
2022-08-16T05:28:13.531Z,17.86
2022-08-16T05:30:39.856Z,17.92
2022-08-16T05:33:16.822Z,17.98
2022-08-16T05:35:44.959Z,18.03
2022-08-16T05:38:32.367Z,18.11
2022-08-16T05:41:02.062Z,18.19
2022-08-16T05:43:28.601Z,18.26
2022-08-16T05:45:59.305Z,18.32
2022-08-16T05:48:26.863Z,18.39
2022-08-16T05:50:53.704Z,18.47
2022-08-16T05:53:20.472Z,18.51
2022-08-16T05:55:51.972Z,18.56
2022-08-16T05:58:31.790Z,18.63
2022-08-16T06:00:59.873Z,18.68
2022-08-16T06:03:26.194Z,18.74
2022-08-16T06:05:56.011Z,18.82
2022-08-16T06:08:31.799Z,18.91
2022-08-16T06:11:02.559Z,18.97
2022-08-16T06:13:36.404Z,19.06
2022-08-16T06:16:02.847Z,19.15
2022-08-16T06:18:29.158Z,19.23
2022-08-16T06:20:56.171Z,19.32
2022-08-16T06:23:26.357Z,19.39
2022-08-16T06:25:53.225Z,19.46
2022-08-16T06:28:35.057Z,19.53
2022-08-16T06:31:03.372Z,19.61
2022-08-16T06:33:41.720Z,19.70
2022-08-16T06:36:09.041Z,19.78
2022-08-16T06:38:35.362Z,19.83
2022-08-16T14:36:56.058Z,29.57
2022-08-16T14:39:22.415Z,29.60
2022-08-16T14:41:48.911Z,29.68
2022-08-16T14:44:19.720Z,29.62
2022-08-16T14:46:46.568Z,29.75
2022-08-16T14:49:12.882Z,29.70
2022-08-16T14:51:40.310Z,29.71
2022-08-16T14:54:11.142Z,29.69
2022-08-16T14:56:42.496Z,29.69
2022-08-16T14:59:09.725Z,29.71
2022-08-16T15:01:57.530Z,29.74
2022-08-16T15:04:40.068Z,29.64
2022-08-16T15:07:12.830Z,29.62
2022-08-16T15:09:44.484Z,29.61
2022-08-16T15:12:32.767Z,29.62
2022-08-16T15:15:04.455Z,29.61
2022-08-16T15:17:38.447Z,29.55
2022-08-16T15:20:06.563Z,29.57
2022-08-16T15:22:36.835Z,29.58
2022-08-16T15:25:05.831Z,29.55
2022-08-16T15:27:35.602Z,29.56
2022-08-16T15:30:47.712Z,29.61
2022-08-16T15:32:50.895Z,29.60
2022-08-16T15:35:17.361Z,29.60
2022-08-16T15:37:44.561Z,29.62
2022-08-16T15:40:26.529Z,29.67
2022-08-16T15:42:58.370Z,29.66
2022-08-16T15:45:25.644Z,29.50
2022-08-16T15:47:55.621Z,29.45
2022-08-16T15:50:22.392Z,29.55
2022-08-16T15:52:48.723Z,29.31
2022-08-16T15:55:34.933Z,29.10
2022-08-16T15:58:01.770Z,29.02
2022-08-16T16:00:48.176Z,28.93
2022-08-16T16:03:16.343Z,28.93
2022-08-16T16:05:48.872Z,28.98
2022-08-16T16:08:24.103Z,28.87
2022-08-16T16:10:58.276Z,28.90
2022-08-16T16:13:24.737Z,28.94
2022-08-16T16:15:52.336Z,28.98
2022-08-16T16:18:21.224Z,29.04
2022-08-16T16:20:49.506Z,29.10
2022-08-16T16:23:19.887Z,29.18
2022-08-16T16:25:51.045Z,29.27
2022-08-16T16:28:51.180Z,29.38
2022-08-16T16:31:07.384Z,29.32
2022-08-16T16:33:35.812Z,29.25
2022-08-16T16:36:02.614Z,29.11
2022-08-16T16:38:30.038Z,28.97
2022-08-16T16:40:56.431Z,28.86
2022-08-16T16:43:25.374Z,28.78
2022-08-16T16:45:52.595Z,28.75
2022-08-16T16:48:18.907Z,28.67
2022-08-16T16:50:45.750Z,28.69
2022-08-16T16:53:17.089Z,28.65
2022-08-16T16:55:44.610Z,28.54
2022-08-16T16:58:28.882Z,28.50
2022-08-16T17:01:03.648Z,28.41
2022-08-16T17:03:30.212Z,28.41
2022-08-16T17:05:58.754Z,28.39
2022-08-16T17:08:29.745Z,28.40
2022-08-16T17:10:57.234Z,28.36
2022-08-16T17:13:23.769Z,28.35
2022-08-16T17:15:52.203Z,28.36
2022-08-16T17:19:15.669Z,28.33
2022-08-16T17:21:07.016Z,28.28
2022-08-16T17:23:59.315Z,28.28
2022-08-16T17:26:20.333Z,28.36
2022-08-16T17:28:58.503Z,28.31
2022-08-16T17:31:40.571Z,28.28
2022-08-16T17:34:30.162Z,28.27
2022-08-16T17:36:58.914Z,28.19
2022-08-16T17:39:25.962Z,28.15
2022-08-16T17:41:52.416Z,28.07
2022-08-16T17:44:18.723Z,27.94
2022-08-16T17:46:51.528Z,27.86
2022-08-16T17:49:20.285Z,27.79
2022-08-16T17:51:46.639Z,27.70
2022-08-16T17:54:18.426Z,27.66
2022-08-16T17:56:56.847Z,27.56
2022-08-16T17:59:23.184Z,27.47
2022-08-16T18:01:49.617Z,27.40
2022-08-16T18:04:43.614Z,27.30
2022-08-16T18:07:03.717Z,27.17
2022-08-16T18:09:30.043Z,27.10
2022-08-16T18:11:57.618Z,27.03
2022-08-16T18:14:52.466Z,26.94
2022-08-16T18:17:10.679Z,26.84
2022-08-16T18:19:37.009Z,26.75
2022-08-16T18:22:04.783Z,26.65
2022-08-16T18:24:31.127Z,26.57
2022-08-16T18:27:01.390Z,26.46
2022-08-16T18:29:43.930Z,26.38
2022-08-16T18:32:10.889Z,26.25
2022-08-16T18:34:37.232Z,26.11
2022-08-16T18:37:05.050Z,26.04
2022-08-16T18:39:31.786Z,26.01
2022-08-16T18:41:58.464Z,25.93
2022-08-16T18:44:29.278Z,25.87
2022-08-16T18:46:58.529Z,25.81
2022-08-16T18:49:24.856Z,25.70
2022-08-16T18:51:55.266Z,25.66
2022-08-16T18:54:22.948Z,25.62
2022-08-16T18:56:55.502Z,25.55
2022-08-16T18:59:23.605Z,25.49
2022-08-16T19:01:49.969Z,25.41
2022-08-16T19:04:47.648Z,25.35
2022-08-16T19:07:03.214Z,25.25
2022-08-16T19:09:30.903Z,25.21
2022-08-16T19:11:57.215Z,25.14
2022-08-16T19:14:23.539Z,25.11
2022-08-16T19:16:49.882Z,25.02
2022-08-16T19:19:16.243Z,24.99
2022-08-16T19:21:42.568Z,24.94
2022-08-16T19:24:17.730Z,24.92
2022-08-16T19:26:45.990Z,24.88
2022-08-16T19:29:12.311Z,24.86
2022-08-16T19:31:39.934Z,24.81
2022-08-16T19:34:06.243Z,24.78
2022-08-16T19:36:35.183Z,24.76
2022-08-16T19:39:04.600Z,24.66
2022-08-16T19:41:32.312Z,24.59
2022-08-16T19:43:59.963Z,24.56
2022-08-16T19:46:26.274Z,24.49
2022-08-16T19:48:52.590Z,24.47
2022-08-16T19:51:18.924Z,24.46
2022-08-16T19:53:45.227Z,24.42
2022-08-16T19:56:11.541Z,24.40
2022-08-16T19:58:37.874Z,24.39
2022-08-16T20:01:05.714Z,24.36
2022-08-16T20:03:32.163Z,24.34
2022-08-16T20:05:58.511Z,24.30
2022-08-16T20:08:24.855Z,24.26
2022-08-16T20:10:51.177Z,24.22
2022-08-16T20:13:18.527Z,24.20
2022-08-16T20:15:45.047Z,24.19
2022-08-16T20:18:21.333Z,24.15
2022-08-16T20:20:52.162Z,24.09
2022-08-16T20:23:24.418Z,24.07
2022-08-16T20:25:52.281Z,24.08
2022-08-16T20:28:40.113Z,24.06
2022-08-16T20:31:05.019Z,24.07
2022-08-16T20:33:32.676Z,24.06
2022-08-16T20:35:58.975Z,24.01
2022-08-16T20:38:25.308Z,23.99
2022-08-16T20:40:51.629Z,23.98
2022-08-16T20:43:17.975Z,23.96
2022-08-16T20:45:45.062Z,23.92
2022-08-16T20:48:11.574Z,23.89
2022-08-16T20:50:39.632Z,23.89
2022-08-16T20:53:06.128Z,23.87
2022-08-16T20:55:33.938Z,23.89
2022-08-16T20:58:00.263Z,23.87
2022-08-16T21:00:26.596Z,23.85
2022-08-16T21:02:52.944Z,23.86
2022-08-16T21:05:20.579Z,23.93
2022-08-16T21:07:51.720Z,23.96
2022-08-16T21:10:18.748Z,24.06
2022-08-16T21:12:49.086Z,24.08
2022-08-16T21:15:16.243Z,24.12
2022-08-16T21:17:42.556Z,24.15
2022-08-16T21:20:09.460Z,24.14
2022-08-16T21:22:35.827Z,24.14
2022-08-16T21:25:03.627Z,24.12
2022-08-16T21:27:30.610Z,24.11
2022-08-16T21:29:56.931Z,24.09
2022-08-16T21:32:34.865Z,24.06
2022-08-16T21:35:06.970Z,24.02
2022-08-16T21:37:33.303Z,23.98
2022-08-16T21:39:59.783Z,23.90
2022-08-16T21:42:27.468Z,23.84
2022-08-16T21:44:54.153Z,23.79
2022-08-16T21:47:20.470Z,23.71
2022-08-16T21:49:46.811Z,23.61
2022-08-16T21:52:22.658Z,23.60
2022-08-16T21:54:56.133Z,23.58
2022-08-16T21:57:22.969Z,23.56
2022-08-16T21:59:51.200Z,23.52
2022-08-16T22:02:18.180Z,23.49
2022-08-16T22:04:44.504Z,23.43
2022-08-16T22:07:10.935Z,23.34
2022-08-16T22:09:37.254Z,23.30
2022-08-16T22:12:03.950Z,23.28
2022-08-16T22:14:31.212Z,23.28
2022-08-16T22:16:58.867Z,23.22
2022-08-16T22:19:25.178Z,23.10
2022-08-16T22:21:51.514Z,22.99
2022-08-16T22:24:18.166Z,22.96
2022-08-16T22:26:44.480Z,22.95
2022-08-16T22:29:11.695Z,22.95
2022-08-16T22:31:39.186Z,22.95
2022-08-16T22:34:07.004Z,22.92
2022-08-16T22:36:33.918Z,22.91
2022-08-16T22:39:01.414Z,22.88
2022-08-16T22:41:28.809Z,22.88
2022-08-16T22:43:55.269Z,22.85
2022-08-16T22:46:21.598Z,22.85
2022-08-16T22:48:48.019Z,22.84
2022-08-16T22:51:15.860Z,22.82
2022-08-16T22:53:42.193Z,22.81
2022-08-16T22:56:08.982Z,22.76
2022-08-16T22:58:36.972Z,22.75
2022-08-16T23:01:03.849Z,22.74
2022-08-16T23:03:30.336Z,22.70
2022-08-16T23:05:57.788Z,22.65
2022-08-16T23:08:38.016Z,22.63
2022-08-16T23:11:07.142Z,22.60
2022-08-16T23:13:33.483Z,22.61
2022-08-16T23:16:00.815Z,22.58
2022-08-16T23:18:29.199Z,22.56
2022-08-16T23:20:56.731Z,22.56
2022-08-16T23:23:24.181Z,22.52
2022-08-16T23:25:55.243Z,22.47
2022-08-16T23:28:23.094Z,22.45
2022-08-16T23:30:49.432Z,22.44
2022-08-16T23:33:16.588Z,22.41
2022-08-16T23:35:45.930Z,22.41
2022-08-16T23:38:37.629Z,22.39
2022-08-16T23:41:01.285Z,22.38
2022-08-16T23:43:28.999Z,22.37
2022-08-16T23:45:56.864Z,22.36
2022-08-16T23:48:25.435Z,22.35
2022-08-16T23:50:52.880Z,22.34
2022-08-16T23:53:20.268Z,22.33
2022-08-16T23:55:47.715Z,22.34
2022-08-16T23:58:16.408Z,22.32
